Ely Airport Yelland Field
KELY : now visible

Airfield :











YOU CAN JOIN US ON...

 
LOGIN :

Register | Disclaimer

   EN    FR    IT 

 









Legend :    VFR   Marginal VFR   IFR   Intensive IFR   Very Intensive IFR
Visi :
Ceiling :
>= 8 km
>= 3000ft
5 to 8 km
1000 to 3000 ft
1500m to 5 km
500 to 1000 ft
800 to 1500m
200 to 500 ft
< 800m
< 200 ft
Symbols :   Thunderstorms  Fog  Heavy snow  Heavy precipitations  Wind > 20 kt






- Airport Elevation : 6259 ft


KELY - Ely Yelland Field

CURRENT METAR :
  • 212353Z AUTO 19008KT 10SM CLR 17/M04 A3024 RMK AO2 SLP202 T01721039 10194 20144 55005

EXPIRED METARs :
  • 212253Z AUTO 25010G17KT 10SM CLR 19/M03 A3024 RMK AO2 SLP189 T01941028
  • 212153Z AUTO 26013KT 10SM CLR 19/M04 A3025 RMK AO2 SLP191 T01891039

TAF KELY
Valid from the 22 at 00:00 until the 23 at 00:00 UTC


212336Z 2200/2224 18008KT P6SM SCT140
FM220300 17012KT P6SM FEW140 BKN200
FM221800 18014G19KT P6SM BKN250
FM222100 19020G30KT P6SM BKN250
KZLC FIR / North America



MET'MAP, your aeronautical weather chart ! - Copyright ORBIFLY December 2007 - Disclaimer

ORBIFLY MET'MAP TEAM :

Programming & Development : Alexandra Zaïnal
Concept & original design : Baudouin d'Aumeries
Assistance for programming : Marc-Olivier Méhu
Technical & hardware support : Manuel Goepfert

Contact : metmap@orbifly.com




SOURCES & CREDITS :

   NOAA       Earth
Advisory